Aviation Digital Data Service (ADDS)

Output produced by METARs form (0918 UTC 23 October 2014)
found at http://www.aviationweather.gov/adds/metars/
 
KDEN 230906Z 2309/2412 24008KT P6SM FEW100 SCT220 
     FM231500 VRB05KT P6SM FEW120 BKN220 
     FM231900 11006KT P6SM FEW120 SCT220 
     FM240200 19008KT P6SM FEW120 SCT220 
     FM240600 21010KT P6SM FEW130 BKN220